sensor_id;sensor_type;location;lat;lon;timestamp;P1;durP1;ratioP1;P2;durP2;ratioP2
59273;SDS011;45044;41.572;24.730;2023-05-07T00:00:31;31.75;;;26.15;;
59273;SDS011;45044;41.572;24.730;2023-05-07T00:03:00;30.98;;;24.20;;
59273;SDS011;45044;41.572;24.730;2023-05-07T00:05:28;27.35;;;22.20;;
59273;SDS011;45044;41.572;24.730;2023-05-07T00:07:54;25.08;;;22.02;;
59273;SDS011;45044;41.572;24.730;2023-05-07T00:10:24;24.83;;;20.88;;
59273;SDS011;45044;41.572;24.730;2023-05-07T00:12:51;26.50;;;20.88;;
59273;SDS011;45044;41.572;24.730;2023-05-07T00:15:18;27.60;;;22.38;;
59273;SDS011;45044;41.572;24.730;2023-05-07T00:17:45;24.48;;;20.05;;
59273;SDS011;45044;41.572;24.730;2023-05-07T00:20:11;23.05;;;18.92;;
59273;SDS011;45044;41.572;24.730;2023-05-07T00:22:38;21.20;;;17.10;;
59273;SDS011;45044;41.572;24.730;2023-05-07T00:25:05;20.13;;;17.92;;
59273;SDS011;45044;41.572;24.730;2023-05-07T00:27:32;20.90;;;16.63;;
59273;SDS011;45044;41.572;24.730;2023-05-07T00:29:59;29.27;;;22.50;;
59273;SDS011;45044;41.572;24.730;2023-05-07T00:32:25;18.50;;;14.50;;
59273;SDS011;45044;41.572;24.730;2023-05-07T00:34:52;15.25;;;13.05;;
59273;SDS011;45044;41.572;24.730;2023-05-07T00:37:19;17.27;;;13.43;;
59273;SDS011;45044;41.572;24.730;2023-05-07T00:39:46;19.52;;;13.52;;
59273;SDS011;45044;41.572;24.730;2023-05-07T00:42:13;18.02;;;15.20;;
59273;SDS011;45044;41.572;24.730;2023-05-07T00:44:41;19.48;;;15.82;;
59273;SDS011;45044;41.572;24.730;2023-05-07T00:47:08;19.77;;;16.27;;
59273;SDS011;45044;41.572;24.730;2023-05-07T00:49:38;20.15;;;15.98;;
59273;SDS011;45044;41.572;24.730;2023-05-07T00:52:09;17.08;;;14.63;;
59273;SDS011;45044;41.572;24.730;2023-05-07T00:54:40;19.92;;;15.00;;
59273;SDS011;45044;41.572;24.730;2023-05-07T00:57:11;19.38;;;16.98;;
59273;SDS011;45044;41.572;24.730;2023-05-07T00:59:38;15.68;;;13.32;;
59273;SDS011;45044;41.572;24.730;2023-05-07T01:02:07;16.35;;;13.43;;
59273;SDS011;45044;41.572;24.730;2023-05-07T01:04:34;15.00;;;12.48;;
59273;SDS011;45044;41.572;24.730;2023-05-07T01:07:01;16.45;;;13.85;;
59273;SDS011;45044;41.572;24.730;2023-05-07T01:09:29;18.67;;;15.05;;
59273;SDS011;45044;41.572;24.730;2023-05-07T01:11:56;16.13;;;14.30;;
59273;SDS011;45044;41.572;24.730;2023-05-07T01:14:25;15.50;;;12.93;;
59273;SDS011;45044;41.572;24.730;2023-05-07T01:16:52;15.43;;;13.82;;
59273;SDS011;45044;41.572;24.730;2023-05-07T01:19:19;16.90;;;12.85;;
59273;SDS011;45044;41.572;24.730;2023-05-07T01:21:47;14.55;;;12.40;;
59273;SDS011;45044;41.572;24.730;2023-05-07T01:24:15;16.65;;;12.38;;
59273;SDS011;45044;41.572;24.730;2023-05-07T01:26:43;19.17;;;14.90;;
59273;SDS011;45044;41.572;24.730;2023-05-07T01:29:12;19.90;;;15.27;;
59273;SDS011;45044;41.572;24.730;2023-05-07T01:31:39;19.05;;;15.25;;
59273;SDS011;45044;41.572;24.730;2023-05-07T01:34:08;18.25;;;15.23;;
59273;SDS011;45044;41.572;24.730;2023-05-07T01:36:38;18.45;;;14.02;;
59273;SDS011;45044;41.572;24.730;2023-05-07T01:39:07;17.80;;;14.13;;
59273;SDS011;45044;41.572;24.730;2023-05-07T01:41:36;19.13;;;15.85;;
59273;SDS011;45044;41.572;24.730;2023-05-07T01:44:03;21.35;;;16.08;;
59273;SDS011;45044;41.572;24.730;2023-05-07T01:46:32;18.42;;;15.35;;
59273;SDS011;45044;41.572;24.730;2023-05-07T01:49:01;21.85;;;15.90;;
59273;SDS011;45044;41.572;24.730;2023-05-07T01:51:27;18.25;;;15.60;;
59273;SDS011;45044;41.572;24.730;2023-05-07T01:53:54;19.73;;;15.73;;
59273;SDS011;45044;41.572;24.730;2023-05-07T01:56:21;18.60;;;14.65;;
59273;SDS011;45044;41.572;24.730;2023-05-07T01:58:47;20.02;;;14.80;;
59273;SDS011;45044;41.572;24.730;2023-05-07T02:01:15;23.40;;;17.15;;
59273;SDS011;45044;41.572;24.730;2023-05-07T02:03:42;22.33;;;18.05;;
59273;SDS011;45044;41.572;24.730;2023-05-07T02:06:09;23.88;;;17.90;;
59273;SDS011;45044;41.572;24.730;2023-05-07T02:08:36;23.85;;;17.52;;
59273;SDS011;45044;41.572;24.730;2023-05-07T02:11:03;20.30;;;16.50;;
59273;SDS011;45044;41.572;24.730;2023-05-07T02:13:31;34.60;;;19.20;;
59273;SDS011;45044;41.572;24.730;2023-05-07T02:15:59;56.22;;;19.40;;
59273;SDS011;45044;41.572;24.730;2023-05-07T02:18:26;31.60;;;19.00;;
59273;SDS011;45044;41.572;24.730;2023-05-07T02:20:53;47.88;;;20.02;;
59273;SDS011;45044;41.572;24.730;2023-05-07T02:23:20;44.50;;;19.83;;
59273;SDS011;45044;41.572;24.730;2023-05-07T02:25:46;28.95;;;18.92;;
59273;SDS011;45044;41.572;24.730;2023-05-07T02:28:13;25.70;;;17.95;;
59273;SDS011;45044;41.572;24.730;2023-05-07T02:30:40;24.08;;;17.98;;
59273;SDS011;45044;41.572;24.730;2023-05-07T02:33:07;22.85;;;17.42;;
59273;SDS011;45044;41.572;24.730;2023-05-07T02:35:35;24.67;;;17.13;;
59273;SDS011;45044;41.572;24.730;2023-05-07T02:38:01;29.77;;;17.55;;
59273;SDS011;45044;41.572;24.730;2023-05-07T02:40:29;25.52;;;17.50;;
59273;SDS011;45044;41.572;24.730;2023-05-07T02:42:55;34.08;;;17.85;;
59273;SDS011;45044;41.572;24.730;2023-05-07T02:45:22;25.27;;;17.08;;
59273;SDS011;45044;41.572;24.730;2023-05-07T02:47:49;29.20;;;19.88;;
59273;SDS011;45044;41.572;24.730;2023-05-07T02:50:16;21.85;;;17.00;;
59273;SDS011;45044;41.572;24.730;2023-05-07T02:52:42;20.55;;;16.73;;
59273;SDS011;45044;41.572;24.730;2023-05-07T02:55:09;21.40;;;16.60;;
59273;SDS011;45044;41.572;24.730;2023-05-07T02:57:36;23.02;;;17.20;;
59273;SDS011;45044;41.572;24.730;2023-05-07T03:00:10;21.98;;;16.65;;
59273;SDS011;45044;41.572;24.730;2023-05-07T03:02:40;25.48;;;17.20;;
59273;SDS011;45044;41.572;24.730;2023-05-07T03:05:07;25.80;;;17.75;;
59273;SDS011;45044;41.572;24.730;2023-05-07T03:07:35;24.77;;;16.92;;
59273;SDS011;45044;41.572;24.730;2023-05-07T03:10:03;23.83;;;17.77;;
59273;SDS011;45044;41.572;24.730;2023-05-07T03:12:31;22.95;;;16.92;;
59273;SDS011;45044;41.572;24.730;2023-05-07T03:14:58;26.20;;;18.15;;
59273;SDS011;45044;41.572;24.730;2023-05-07T03:17:25;26.95;;;18.55;;
59273;SDS011;45044;41.572;24.730;2023-05-07T03:19:51;36.70;;;21.45;;
59273;SDS011;45044;41.572;24.730;2023-05-07T03:22:18;37.88;;;22.50;;
59273;SDS011;45044;41.572;24.730;2023-05-07T03:24:46;44.15;;;18.83;;
59273;SDS011;45044;41.572;24.730;2023-05-07T03:27:13;43.22;;;20.42;;
59273;SDS011;45044;41.572;24.730;2023-05-07T03:29:39;37.33;;;20.55;;
59273;SDS011;45044;41.572;24.730;2023-05-07T03:32:06;24.27;;;16.98;;
59273;SDS011;45044;41.572;24.730;2023-05-07T03:34:33;29.88;;;19.83;;
59273;SDS011;45044;41.572;24.730;2023-05-07T03:37:00;33.03;;;21.77;;
59273;SDS011;45044;41.572;24.730;2023-05-07T03:39:26;39.50;;;21.23;;
59273;SDS011;45044;41.572;24.730;2023-05-07T03:41:53;33.40;;;21.95;;
59273;SDS011;45044;41.572;24.730;2023-05-07T03:44:20;29.05;;;19.33;;
59273;SDS011;45044;41.572;24.730;2023-05-07T03:46:46;27.08;;;19.23;;
59273;SDS011;45044;41.572;24.730;2023-05-07T03:49:13;30.02;;;20.80;;
59273;SDS011;45044;41.572;24.730;2023-05-07T03:51:40;25.52;;;19.20;;
59273;SDS011;45044;41.572;24.730;2023-05-07T03:54:07;28.48;;;18.80;;
59273;SDS011;45044;41.572;24.730;2023-05-07T03:56:34;29.77;;;17.65;;
59273;SDS011;45044;41.572;24.730;2023-05-07T03:59:01;54.20;;;30.55;;
59273;SDS011;45044;41.572;24.730;2023-05-07T04:01:28;46.03;;;32.53;;
59273;SDS011;45044;41.572;24.730;2023-05-07T04:03:55;36.63;;;24.75;;
59273;SDS011;45044;41.572;24.730;2023-05-07T04:06:22;25.48;;;16.38;;
59273;SDS011;45044;41.572;24.730;2023-05-07T04:08:49;26.00;;;16.65;;
59273;SDS011;45044;41.572;24.730;2023-05-07T04:11:16;22.90;;;16.70;;
59273;SDS011;45044;41.572;24.730;2023-05-07T04:13:45;22.70;;;16.67;;
59273;SDS011;45044;41.572;24.730;2023-05-07T04:16:12;22.63;;;16.67;;
59273;SDS011;45044;41.572;24.730;2023-05-07T04:18:39;21.42;;;16.55;;
59273;SDS011;45044;41.572;24.730;2023-05-07T04:21:06;19.95;;;15.40;;
59273;SDS011;45044;41.572;24.730;2023-05-07T04:23:41;20.20;;;14.85;;
59273;SDS011;45044;41.572;24.730;2023-05-07T04:26:08;18.38;;;13.13;;
59273;SDS011;45044;41.572;24.730;2023-05-07T04:28:34;19.95;;;14.15;;
59273;SDS011;45044;41.572;24.730;2023-05-07T04:31:02;18.60;;;13.15;;
59273;SDS011;45044;41.572;24.730;2023-05-07T04:33:28;16.98;;;13.18;;
59273;SDS011;45044;41.572;24.730;2023-05-07T04:35:55;18.83;;;14.20;;
59273;SDS011;45044;41.572;24.730;2023-05-07T04:38:22;23.08;;;16.15;;
59273;SDS011;45044;41.572;24.730;2023-05-07T04:40:49;21.35;;;16.13;;
59273;SDS011;45044;41.572;24.730;2023-05-07T04:43:16;19.48;;;15.95;;
59273;SDS011;45044;41.572;24.730;2023-05-07T04:45:43;20.42;;;15.13;;
59273;SDS011;45044;41.572;24.730;2023-05-07T04:48:10;27.15;;;18.65;;
59273;SDS011;45044;41.572;24.730;2023-05-07T04:50:37;20.67;;;14.52;;
59273;SDS011;45044;41.572;24.730;2023-05-07T04:53:04;21.08;;;15.27;;
59273;SDS011;45044;41.572;24.730;2023-05-07T04:55:31;23.25;;;15.82;;
59273;SDS011;45044;41.572;24.730;2023-05-07T04:57:58;28.00;;;18.90;;
59273;SDS011;45044;41.572;24.730;2023-05-07T05:00:24;39.95;;;18.73;;
59273;SDS011;45044;41.572;24.730;2023-05-07T05:02:51;46.80;;;20.55;;
59273;SDS011;45044;41.572;24.730;2023-05-07T05:05:18;103.32;;;22.75;;
59273;SDS011;45044;41.572;24.730;2023-05-07T05:07:45;55.63;;;17.85;;
59273;SDS011;45044;41.572;24.730;2023-05-07T05:10:11;71.07;;;19.85;;
59273;SDS011;45044;41.572;24.730;2023-05-07T05:12:38;34.55;;;15.73;;
59273;SDS011;45044;41.572;24.730;2023-05-07T05:15:06;47.15;;;18.20;;
59273;SDS011;45044;41.572;24.730;2023-05-07T05:17:33;27.08;;;15.07;;
59273;SDS011;45044;41.572;24.730;2023-05-07T05:20:01;20.85;;;12.80;;
59273;SDS011;45044;41.572;24.730;2023-05-07T05:22:29;20.55;;;14.05;;
59273;SDS011;45044;41.572;24.730;2023-05-07T05:24:57;16.02;;;13.75;;
59273;SDS011;45044;41.572;24.730;2023-05-07T05:27:24;32.95;;;19.42;;
59273;SDS011;45044;41.572;24.730;2023-05-07T05:29:50;24.75;;;18.13;;
59273;SDS011;45044;41.572;24.730;2023-05-07T05:32:17;23.90;;;17.70;;
59273;SDS011;45044;41.572;24.730;2023-05-07T05:34:44;34.90;;;17.73;;
59273;SDS011;45044;41.572;24.730;2023-05-07T05:37:11;109.25;;;60.58;;
59273;SDS011;45044;41.572;24.730;2023-05-07T05:39:38;24.17;;;15.32;;
59273;SDS011;45044;41.572;24.730;2023-05-07T05:42:05;20.23;;;15.23;;
59273;SDS011;45044;41.572;24.730;2023-05-07T05:44:32;20.45;;;16.88;;
59273;SDS011;45044;41.572;24.730;2023-05-07T05:46:59;54.17;;;19.98;;
59273;SDS011;45044;41.572;24.730;2023-05-07T05:49:26;27.42;;;16.70;;
59273;SDS011;45044;41.572;24.730;2023-05-07T05:51:52;27.48;;;18.90;;
59273;SDS011;45044;41.572;24.730;2023-05-07T05:54:19;37.72;;;19.23;;
59273;SDS011;45044;41.572;24.730;2023-05-07T05:56:46;32.22;;;19.17;;
59273;SDS011;45044;41.572;24.730;2023-05-07T05:59:13;33.35;;;19.13;;
59273;SDS011;45044;41.572;24.730;2023-05-07T06:01:40;48.40;;;18.98;;
59273;SDS011;45044;41.572;24.730;2023-05-07T06:04:07;25.52;;;17.10;;
59273;SDS011;45044;41.572;24.730;2023-05-07T06:06:34;23.02;;;16.40;;
59273;SDS011;45044;41.572;24.730;2023-05-07T06:09:00;32.35;;;16.55;;
59273;SDS011;45044;41.572;24.730;2023-05-07T06:11:27;27.70;;;17.30;;
59273;SDS011;45044;41.572;24.730;2023-05-07T06:13:55;18.77;;;14.60;;
59273;SDS011;45044;41.572;24.730;2023-05-07T06:16:22;19.05;;;13.60;;
59273;SDS011;45044;41.572;24.730;2023-05-07T06:18:48;17.08;;;12.63;;
59273;SDS011;45044;41.572;24.730;2023-05-07T06:21:15;16.58;;;13.02;;
59273;SDS011;45044;41.572;24.730;2023-05-07T06:23:42;11.85;;;10.10;;
59273;SDS011;45044;41.572;24.730;2023-05-07T06:26:09;11.07;;;9.07;;
59273;SDS011;45044;41.572;24.730;2023-05-07T06:28:36;9.75;;;7.72;;
59273;SDS011;45044;41.572;24.730;2023-05-07T06:31:12;9.75;;;7.85;;
59273;SDS011;45044;41.572;24.730;2023-05-07T06:33:39;8.57;;;6.88;;
59273;SDS011;45044;41.572;24.730;2023-05-07T06:36:06;10.70;;;6.93;;
59273;SDS011;45044;41.572;24.730;2023-05-07T06:38:33;9.02;;;6.57;;
59273;SDS011;45044;41.572;24.730;2023-05-07T06:41:00;8.43;;;6.03;;
59273;SDS011;45044;41.572;24.730;2023-05-07T06:43:26;6.85;;;5.55;;
59273;SDS011;45044;41.572;24.730;2023-05-07T06:45:53;8.45;;;6.57;;
59273;SDS011;45044;41.572;24.730;2023-05-07T06:48:20;12.57;;;6.72;;
59273;SDS011;45044;41.572;24.730;2023-05-07T06:50:47;11.40;;;5.97;;
59273;SDS011;45044;41.572;24.730;2023-05-07T06:53:13;10.90;;;5.68;;
59273;SDS011;45044;41.572;24.730;2023-05-07T06:55:40;8.68;;;5.70;;
59273;SDS011;45044;41.572;24.730;2023-05-07T06:58:07;13.57;;;7.68;;
59273;SDS011;45044;41.572;24.730;2023-05-07T07:00:34;9.05;;;6.13;;
59273;SDS011;45044;41.572;24.730;2023-05-07T07:03:01;15.30;;;8.50;;
59273;SDS011;45044;41.572;24.730;2023-05-07T07:05:28;9.35;;;6.28;;
59273;SDS011;45044;41.572;24.730;2023-05-07T07:08:04;11.02;;;6.90;;
59273;SDS011;45044;41.572;24.730;2023-05-07T07:10:32;6.82;;;4.45;;
59273;SDS011;45044;41.572;24.730;2023-05-07T07:12:58;7.97;;;5.82;;
59273;SDS011;45044;41.572;24.730;2023-05-07T07:15:25;7.10;;;4.22;;
59273;SDS011;45044;41.572;24.730;2023-05-07T07:17:52;5.10;;;3.60;;
59273;SDS011;45044;41.572;24.730;2023-05-07T07:20:19;7.63;;;4.93;;
59273;SDS011;45044;41.572;24.730;2023-05-07T07:22:46;6.80;;;4.50;;
59273;SDS011;45044;41.572;24.730;2023-05-07T07:25:12;6.13;;;3.85;;
59273;SDS011;45044;41.572;24.730;2023-05-07T07:27:39;6.57;;;4.40;;
59273;SDS011;45044;41.572;24.730;2023-05-07T07:30:06;7.63;;;3.95;;
59273;SDS011;45044;41.572;24.730;2023-05-07T07:32:34;6.85;;;4.05;;
59273;SDS011;45044;41.572;24.730;2023-05-07T07:35:01;5.53;;;3.83;;
59273;SDS011;45044;41.572;24.730;2023-05-07T07:37:29;5.00;;;3.67;;
59273;SDS011;45044;41.572;24.730;2023-05-07T07:39:55;3.58;;;3.15;;
59273;SDS011;45044;41.572;24.730;2023-05-07T07:42:23;5.95;;;3.35;;
59273;SDS011;45044;41.572;24.730;2023-05-07T07:44:49;6.03;;;3.53;;
59273;SDS011;45044;41.572;24.730;2023-05-07T07:47:16;6.47;;;4.22;;
59273;SDS011;45044;41.572;24.730;2023-05-07T07:49:43;5.43;;;3.67;;
59273;SDS011;45044;41.572;24.730;2023-05-07T07:52:09;6.00;;;3.85;;
59273;SDS011;45044;41.572;24.730;2023-05-07T07:54:36;4.85;;;3.35;;
59273;SDS011;45044;41.572;24.730;2023-05-07T07:57:09;7.82;;;3.88;;
59273;SDS011;45044;41.572;24.730;2023-05-07T07:59:36;5.70;;;3.60;;
59273;SDS011;45044;41.572;24.730;2023-05-07T08:02:03;5.78;;;3.30;;
59273;SDS011;45044;41.572;24.730;2023-05-07T08:04:30;5.32;;;3.80;;
59273;SDS011;45044;41.572;24.730;2023-05-07T08:06:59;5.32;;;3.70;;
59273;SDS011;45044;41.572;24.730;2023-05-07T08:09:26;4.97;;;3.25;;
59273;SDS011;45044;41.572;24.730;2023-05-07T08:11:53;6.72;;;3.70;;
59273;SDS011;45044;41.572;24.730;2023-05-07T08:14:19;4.45;;;3.33;;
59273;SDS011;45044;41.572;24.730;2023-05-07T08:16:46;5.38;;;3.15;;
59273;SDS011;45044;41.572;24.730;2023-05-07T08:19:13;5.65;;;2.90;;
59273;SDS011;45044;41.572;24.730;2023-05-07T08:21:39;5.25;;;3.15;;
59273;SDS011;45044;41.572;24.730;2023-05-07T08:24:06;6.03;;;3.45;;
59273;SDS011;45044;41.572;24.730;2023-05-07T08:26:33;6.88;;;3.95;;
59273;SDS011;45044;41.572;24.730;2023-05-07T08:29:02;8.30;;;3.78;;
59273;SDS011;45044;41.572;24.730;2023-05-07T08:31:28;8.77;;;5.18;;
59273;SDS011;45044;41.572;24.730;2023-05-07T08:33:55;13.38;;;8.13;;
59273;SDS011;45044;41.572;24.730;2023-05-07T08:36:23;6.28;;;3.83;;
59273;SDS011;45044;41.572;24.730;2023-05-07T08:38:51;7.32;;;4.43;;
59273;SDS011;45044;41.572;24.730;2023-05-07T08:41:18;5.50;;;3.60;;
59273;SDS011;45044;41.572;24.730;2023-05-07T08:43:47;5.78;;;3.42;;
59273;SDS011;45044;41.572;24.730;2023-05-07T08:46:21;4.97;;;3.00;;
59273;SDS011;45044;41.572;24.730;2023-05-07T08:48:48;6.97;;;3.85;;
59273;SDS011;45044;41.572;24.730;2023-05-07T08:51:17;6.18;;;3.33;;
59273;SDS011;45044;41.572;24.730;2023-05-07T08:53:55;6.13;;;3.30;;
59273;SDS011;45044;41.572;24.730;2023-05-07T08:56:22;7.50;;;3.70;;
59273;SDS011;45044;41.572;24.730;2023-05-07T08:58:49;5.97;;;3.42;;
59273;SDS011;45044;41.572;24.730;2023-05-07T09:01:16;5.32;;;3.45;;
59273;SDS011;45044;41.572;24.730;2023-05-07T09:03:44;6.03;;;3.42;;
59273;SDS011;45044;41.572;24.730;2023-05-07T09:06:12;6.25;;;3.90;;
59273;SDS011;45044;41.572;24.730;2023-05-07T09:08:38;7.50;;;3.30;;
59273;SDS011;45044;41.572;24.730;2023-05-07T09:11:05;6.68;;;3.13;;
59273;SDS011;45044;41.572;24.730;2023-05-07T09:13:32;6.80;;;3.22;;
59273;SDS011;45044;41.572;24.730;2023-05-07T09:15:58;5.65;;;3.20;;
59273;SDS011;45044;41.572;24.730;2023-05-07T09:18:44;4.28;;;2.78;;
59273;SDS011;45044;41.572;24.730;2023-05-07T09:21:11;8.40;;;3.38;;
59273;SDS011;45044;41.572;24.730;2023-05-07T09:23:42;4.95;;;2.70;;
59273;SDS011;45044;41.572;24.730;2023-05-07T09:26:09;4.10;;;2.55;;
59273;SDS011;45044;41.572;24.730;2023-05-07T09:28:39;5.70;;;2.50;;
59273;SDS011;45044;41.572;24.730;2023-05-07T09:31:09;5.30;;;2.60;;
59273;SDS011;45044;41.572;24.730;2023-05-07T09:33:38;5.50;;;2.75;;
59273;SDS011;45044;41.572;24.730;2023-05-07T09:36:06;6.28;;;3.05;;
59273;SDS011;45044;41.572;24.730;2023-05-07T09:38:34;5.05;;;2.92;;
59273;SDS011;45044;41.572;24.730;2023-05-07T09:41:06;5.55;;;2.95;;
59273;SDS011;45044;41.572;24.730;2023-05-07T09:43:34;5.28;;;2.65;;
59273;SDS011;45044;41.572;24.730;2023-05-07T09:46:12;3.95;;;2.50;;
59273;SDS011;45044;41.572;24.730;2023-05-07T09:48:42;4.78;;;2.20;;
59273;SDS011;45044;41.572;24.730;2023-05-07T09:51:24;4.18;;;2.70;;
59273;SDS011;45044;41.572;24.730;2023-05-07T09:53:56;3.13;;;2.17;;
59273;SDS011;45044;41.572;24.730;2023-05-07T09:56:23;4.80;;;2.30;;
59273;SDS011;45044;41.572;24.730;2023-05-07T09:58:52;4.35;;;2.22;;
59273;SDS011;45044;41.572;24.730;2023-05-07T10:01:22;5.13;;;2.60;;
59273;SDS011;45044;41.572;24.730;2023-05-07T10:03:51;5.13;;;2.60;;
59273;SDS011;45044;41.572;24.730;2023-05-07T10:06:20;6.55;;;2.80;;
59273;SDS011;45044;41.572;24.730;2023-05-07T10:08:47;4.55;;;2.60;;
59273;SDS011;45044;41.572;24.730;2023-05-07T10:11:15;5.50;;;2.90;;
59273;SDS011;45044;41.572;24.730;2023-05-07T10:13:42;5.50;;;2.50;;
59273;SDS011;45044;41.572;24.730;2023-05-07T10:16:09;3.75;;;2.17;;
59273;SDS011;45044;41.572;24.730;2023-05-07T10:18:36;5.50;;;2.80;;
59273;SDS011;45044;41.572;24.730;2023-05-07T10:21:09;6.63;;;2.63;;
59273;SDS011;45044;41.572;24.730;2023-05-07T10:23:40;5.05;;;2.53;;
59273;SDS011;45044;41.572;24.730;2023-05-07T10:26:11;4.75;;;2.40;;
59273;SDS011;45044;41.572;24.730;2023-05-07T10:28:41;3.53;;;2.13;;
59273;SDS011;45044;41.572;24.730;2023-05-07T10:33:49;5.00;;;2.40;;
59273;SDS011;45044;41.572;24.730;2023-05-07T10:36:19;4.57;;;2.45;;
59273;SDS011;45044;41.572;24.730;2023-05-07T10:38:48;4.28;;;2.60;;
59273;SDS011;45044;41.572;24.730;2023-05-07T10:41:14;3.90;;;2.65;;
59273;SDS011;45044;41.572;24.730;2023-05-07T10:43:44;6.95;;;2.90;;
59273;SDS011;45044;41.572;24.730;2023-05-07T10:46:16;5.72;;;2.60;;
59273;SDS011;45044;41.572;24.730;2023-05-07T10:51:35;5.60;;;2.80;;
59273;SDS011;45044;41.572;24.730;2023-05-07T10:56:39;6.75;;;2.90;;
59273;SDS011;45044;41.572;24.730;2023-05-07T11:01:57;5.65;;;2.53;;
59273;SDS011;45044;41.572;24.730;2023-05-07T11:04:33;5.00;;;3.00;;
59273;SDS011;45044;41.572;24.730;2023-05-07T11:12:45;5.00;;;2.70;;
59273;SDS011;45044;41.572;24.730;2023-05-07T11:15:06;4.68;;;2.90;;
59273;SDS011;45044;41.572;24.730;2023-05-07T11:17:34;6.18;;;3.10;;
59273;SDS011;45044;41.572;24.730;2023-05-07T11:20:19;3.03;;;2.22;;
59273;SDS011;45044;41.572;24.730;2023-05-07T11:22:46;4.50;;;2.33;;
59273;SDS011;45044;41.572;24.730;2023-05-07T11:25:17;3.97;;;2.40;;
59273;SDS011;45044;41.572;24.730;2023-05-07T11:27:47;5.03;;;3.15;;
59273;SDS011;45044;41.572;24.730;2023-05-07T11:30:17;4.55;;;2.50;;
59273;SDS011;45044;41.572;24.730;2023-05-07T11:32:47;4.43;;;2.70;;
59273;SDS011;45044;41.572;24.730;2023-05-07T11:35:15;4.05;;;2.20;;
59273;SDS011;45044;41.572;24.730;2023-05-07T11:37:42;4.45;;;2.60;;
59273;SDS011;45044;41.572;24.730;2023-05-07T11:40:11;4.20;;;2.53;;
59273;SDS011;45044;41.572;24.730;2023-05-07T11:42:40;6.75;;;3.17;;
59273;SDS011;45044;41.572;24.730;2023-05-07T11:45:09;4.60;;;2.65;;
59273;SDS011;45044;41.572;24.730;2023-05-07T11:47:37;5.22;;;3.20;;
59273;SDS011;45044;41.572;24.730;2023-05-07T11:50:07;5.20;;;3.08;;
59273;SDS011;45044;41.572;24.730;2023-05-07T11:52:34;4.75;;;2.60;;
59273;SDS011;45044;41.572;24.730;2023-05-07T11:55:02;4.22;;;2.83;;
59273;SDS011;45044;41.572;24.730;2023-05-07T11:57:32;5.43;;;2.90;;
59273;SDS011;45044;41.572;24.730;2023-05-07T12:00:05;3.33;;;2.20;;
59273;SDS011;45044;41.572;24.730;2023-05-07T12:02:32;4.82;;;2.88;;
59273;SDS011;45044;41.572;24.730;2023-05-07T12:05:01;3.63;;;2.75;;
59273;SDS011;45044;41.572;24.730;2023-05-07T12:07:28;5.28;;;3.25;;
59273;SDS011;45044;41.572;24.730;2023-05-07T12:09:55;6.85;;;3.63;;
59273;SDS011;45044;41.572;24.730;2023-05-07T12:12:22;4.50;;;2.17;;
59273;SDS011;45044;41.572;24.730;2023-05-07T12:14:49;7.93;;;4.43;;
59273;SDS011;45044;41.572;24.730;2023-05-07T12:17:15;6.63;;;3.70;;
59273;SDS011;45044;41.572;24.730;2023-05-07T12:19:43;8.38;;;5.25;;
59273;SDS011;45044;41.572;24.730;2023-05-07T12:22:11;12.23;;;8.45;;
59273;SDS011;45044;41.572;24.730;2023-05-07T12:24:46;16.10;;;12.35;;
59273;SDS011;45044;41.572;24.730;2023-05-07T12:27:15;5.65;;;3.33;;
59273;SDS011;45044;41.572;24.730;2023-05-07T12:29:46;6.95;;;3.88;;
59273;SDS011;45044;41.572;24.730;2023-05-07T12:32:16;7.70;;;5.28;;
59273;SDS011;45044;41.572;24.730;2023-05-07T12:34:45;6.88;;;4.05;;
59273;SDS011;45044;41.572;24.730;2023-05-07T12:37:12;6.32;;;4.10;;
59273;SDS011;45044;41.572;24.730;2023-05-07T12:39:48;4.25;;;2.55;;
59273;SDS011;45044;41.572;24.730;2023-05-07T12:42:18;6.15;;;4.63;;
59273;SDS011;45044;41.572;24.730;2023-05-07T12:44:50;8.68;;;5.30;;
59273;SDS011;45044;41.572;24.730;2023-05-07T12:47:17;5.18;;;3.53;;
59273;SDS011;45044;41.572;24.730;2023-05-07T12:49:43;5.43;;;3.97;;
59273;SDS011;45044;41.572;24.730;2023-05-07T12:52:12;5.35;;;3.08;;
59273;SDS011;45044;41.572;24.730;2023-05-07T12:54:39;4.70;;;3.17;;
59273;SDS011;45044;41.572;24.730;2023-05-07T12:57:06;5.22;;;4.15;;
59273;SDS011;45044;41.572;24.730;2023-05-07T12:59:41;4.30;;;2.95;;
59273;SDS011;45044;41.572;24.730;2023-05-07T13:02:08;5.05;;;3.28;;
59273;SDS011;45044;41.572;24.730;2023-05-07T13:04:36;5.35;;;3.60;;
59273;SDS011;45044;41.572;24.730;2023-05-07T13:07:02;4.95;;;3.40;;
59273;SDS011;45044;41.572;24.730;2023-05-07T13:09:30;6.40;;;3.80;;
59273;SDS011;45044;41.572;24.730;2023-05-07T13:11:57;5.07;;;3.25;;
59273;SDS011;45044;41.572;24.730;2023-05-07T13:14:28;6.00;;;2.90;;
59273;SDS011;45044;41.572;24.730;2023-05-07T13:16:54;5.60;;;2.85;;
59273;SDS011;45044;41.572;24.730;2023-05-07T13:19:21;5.75;;;2.95;;
59273;SDS011;45044;41.572;24.730;2023-05-07T13:21:47;5.30;;;2.88;;
59273;SDS011;45044;41.572;24.730;2023-05-07T13:24:15;5.18;;;3.20;;
59273;SDS011;45044;41.572;24.730;2023-05-07T13:26:42;4.70;;;2.63;;
59273;SDS011;45044;41.572;24.730;2023-05-07T13:29:11;5.88;;;3.75;;
59273;SDS011;45044;41.572;24.730;2023-05-07T13:31:38;4.80;;;3.28;;
59273;SDS011;45044;41.572;24.730;2023-05-07T13:34:09;6.10;;;3.70;;
59273;SDS011;45044;41.572;24.730;2023-05-07T13:36:36;7.60;;;4.38;;
59273;SDS011;45044;41.572;24.730;2023-05-07T13:39:06;8.02;;;4.55;;
59273;SDS011;45044;41.572;24.730;2023-05-07T13:41:33;6.55;;;3.67;;
59273;SDS011;45044;41.572;24.730;2023-05-07T13:43:59;6.40;;;3.40;;
59273;SDS011;45044;41.572;24.730;2023-05-07T13:46:27;4.80;;;2.55;;
59273;SDS011;45044;41.572;24.730;2023-05-07T13:48:54;4.75;;;2.92;;
59273;SDS011;45044;41.572;24.730;2023-05-07T13:51:21;6.20;;;3.05;;
59273;SDS011;45044;41.572;24.730;2023-05-07T13:53:47;4.10;;;2.95;;
59273;SDS011;45044;41.572;24.730;2023-05-07T13:56:14;4.95;;;3.40;;
59273;SDS011;45044;41.572;24.730;2023-05-07T13:58:41;4.57;;;3.17;;
59273;SDS011;45044;41.572;24.730;2023-05-07T14:01:24;4.10;;;3.05;;
59273;SDS011;45044;41.572;24.730;2023-05-07T14:03:51;5.35;;;3.63;;
59273;SDS011;45044;41.572;24.730;2023-05-07T14:06:18;5.47;;;3.00;;
59273;SDS011;45044;41.572;24.730;2023-05-07T14:08:44;6.50;;;3.65;;
59273;SDS011;45044;41.572;24.730;2023-05-07T14:11:11;5.38;;;2.85;;
59273;SDS011;45044;41.572;24.730;2023-05-07T14:13:38;4.57;;;2.92;;
59273;SDS011;45044;41.572;24.730;2023-05-07T14:16:05;3.47;;;2.58;;
59273;SDS011;45044;41.572;24.730;2023-05-07T14:18:33;4.57;;;2.90;;
59273;SDS011;45044;41.572;24.730;2023-05-07T14:21:00;3.88;;;2.97;;
59273;SDS011;45044;41.572;24.730;2023-05-07T14:23:27;5.60;;;3.47;;
59273;SDS011;45044;41.572;24.730;2023-05-07T14:25:54;5.32;;;3.00;;
59273;SDS011;45044;41.572;24.730;2023-05-07T14:28:21;5.07;;;3.38;;
59273;SDS011;45044;41.572;24.730;2023-05-07T14:30:47;5.90;;;2.70;;
59273;SDS011;45044;41.572;24.730;2023-05-07T14:33:14;7.32;;;3.83;;
59273;SDS011;45044;41.572;24.730;2023-05-07T14:35:41;5.93;;;3.35;;
59273;SDS011;45044;41.572;24.730;2023-05-07T14:38:11;4.70;;;2.50;;
59273;SDS011;45044;41.572;24.730;2023-05-07T14:40:38;6.70;;;3.72;;
59273;SDS011;45044;41.572;24.730;2023-05-07T14:43:04;7.60;;;5.43;;